createdAt,value
2018-11-07T00:01:24.222Z,101057.21
2018-11-07T00:03:52.600Z,101051.19
2018-11-07T00:06:20.993Z,101049.41
2018-11-07T00:08:49.371Z,101048.88
2018-11-07T00:11:17.771Z,101051.88
2018-11-07T00:13:46.186Z,101058.66
2018-11-07T00:16:14.606Z,101054.75
2018-11-07T00:18:43.074Z,101047.83
2018-11-07T00:21:11.466Z,101058.08
2018-11-07T00:23:39.846Z,101055.89
2018-11-07T00:26:08.258Z,101050.29
2018-11-07T00:28:36.639Z,101051.50
2018-11-07T00:31:05.040Z,101049.77
2018-11-07T00:33:33.415Z,101046.66
2018-11-07T00:36:01.814Z,101048.40
2018-11-07T00:38:30.185Z,101052.64
2018-11-07T00:40:58.611Z,101057.30
2018-11-07T00:43:26.982Z,101055.06
2018-11-07T00:45:55.379Z,101045.60
2018-11-07T00:48:23.758Z,101043.37
2018-11-07T00:50:52.163Z,101049.34
2018-11-07T00:53:20.553Z,101046.66
2018-11-07T00:55:48.949Z,101043.55
2018-11-07T00:58:17.315Z,101044.35
2018-11-07T01:00:45.711Z,101051.13
2018-11-07T01:03:14.095Z,101037.39
2018-11-07T01:05:42.510Z,101032.66
2018-11-07T01:08:10.890Z,101030.02
2018-11-07T01:10:39.662Z,101030.84
2018-11-07T01:13:08.061Z,101035.12
2018-11-07T01:15:36.434Z,101029.44
2018-11-07T01:18:05.250Z,101027.63
2018-11-07T01:20:33.617Z,101024.11
2018-11-07T01:23:02.044Z,101025.81
2018-11-07T01:25:30.418Z,101015.78
2018-11-07T01:27:58.851Z,101020.17
2018-11-07T01:30:27.219Z,101013.55
2018-11-07T01:32:55.610Z,101021.00
2018-11-07T01:35:23.989Z,101020.59
2018-11-07T01:37:52.382Z,101015.10
2018-11-07T01:40:20.753Z,101009.47
2018-11-07T01:42:49.179Z,101018.47
2018-11-07T01:45:17.562Z,101012.04
2018-11-07T01:47:45.962Z,101010.37
2018-11-07T01:50:14.538Z,101011.17
2018-11-07T01:52:42.938Z,101012.00
2018-11-07T01:55:11.511Z,101007.65
2018-11-07T01:57:39.922Z,101001.98
2018-11-07T02:00:10.618Z,101008.78
2018-11-07T02:02:39.129Z,100999.29
2018-11-07T02:05:07.885Z,101001.82
2018-11-07T02:07:36.281Z,101004.77
2018-11-07T02:10:05.706Z,101005.19
2018-11-07T02:12:34.182Z,100999.17
2018-11-07T02:15:02.844Z,100993.57
2018-11-07T02:17:31.243Z,100993.20
2018-11-07T02:19:59.621Z,100988.05
2018-11-07T02:22:28.024Z,100990.36
2018-11-07T02:24:56.407Z,100991.30
2018-11-07T02:27:24.806Z,100994.00
2018-11-07T02:29:53.270Z,100991.08
2018-11-07T02:32:21.666Z,100987.08
2018-11-07T02:34:50.038Z,100994.11
2018-11-07T02:37:18.439Z,100983.41
2018-11-07T02:39:46.818Z,100978.67
2018-11-07T02:42:15.234Z,100974.74
2018-11-07T02:44:43.610Z,100980.30
2018-11-07T02:47:12.009Z,100969.90
2018-11-07T02:49:40.384Z,100977.31
2018-11-07T02:52:08.783Z,100973.45
2018-11-07T02:54:37.154Z,100973.00
2018-11-07T02:57:05.649Z,100974.21
2018-11-07T02:59:34.035Z,100978.97
2018-11-07T03:02:02.426Z,100973.30
2018-11-07T03:04:30.806Z,100971.83
2018-11-07T03:06:59.222Z,100963.05
2018-11-07T03:09:27.594Z,100969.33
2018-11-07T03:11:55.962Z,100975.65
2018-11-07T03:14:24.846Z,100969.10
2018-11-07T03:16:53.211Z,100967.70
2018-11-07T03:19:21.607Z,100965.39
2018-11-07T03:21:49.978Z,100965.28
2018-11-07T03:24:18.371Z,100961.64
2018-11-07T03:26:46.745Z,100962.85
2018-11-07T03:29:15.142Z,100970.86
2018-11-07T03:31:43.506Z,100957.02
2018-11-07T03:34:11.902Z,100954.30
2018-11-07T03:36:40.273Z,100959.81
2018-11-07T03:39:10.230Z,100961.02
2018-11-07T03:41:38.899Z,100971.63
2018-11-07T03:44:08.125Z,100961.23
2018-11-07T03:46:36.526Z,100955.68
2018-11-07T03:49:05.314Z,100965.16
2018-11-07T03:51:33.681Z,100962.52
2018-11-07T03:54:02.112Z,100962.59
2018-11-07T03:56:30.491Z,100968.61
2018-11-07T03:58:58.886Z,100957.09
2018-11-07T04:01:27.258Z,100957.23
2018-11-07T04:03:55.652Z,100956.94
2018-11-07T04:06:24.038Z,100960.50
2018-11-07T04:08:52.455Z,100961.03
2018-11-07T04:11:20.868Z,100956.31
2018-11-07T04:13:49.282Z,100957.25
2018-11-07T04:16:17.652Z,100953.47
2018-11-07T04:18:46.117Z,100959.48
2018-11-07T04:21:14.643Z,100953.32
2018-11-07T04:23:47.426Z,100951.51
2018-11-07T04:26:15.810Z,100949.16
2018-11-07T04:28:44.215Z,100942.61
2018-11-07T04:31:12.603Z,100942.91
2018-11-07T04:33:41.001Z,100946.27
2018-11-07T04:36:09.394Z,100938.94
2018-11-07T04:38:37.794Z,100939.65
2018-11-07T04:41:06.473Z,100943.50
2018-11-07T04:43:34.863Z,100932.84
2018-11-07T04:46:03.239Z,100935.13
2018-11-07T04:48:31.631Z,100930.63
2018-11-07T04:50:59.998Z,100930.07
2018-11-07T04:53:28.390Z,100932.00
2018-11-07T04:55:56.762Z,100929.17
2018-11-07T04:58:25.154Z,100936.88
2018-11-07T05:00:53.522Z,100936.77
2018-11-07T05:03:21.913Z,100940.35
2018-11-07T05:05:50.319Z,100939.63
2018-11-07T05:08:18.827Z,100950.42
2018-11-07T05:10:47.206Z,100956.03
2018-11-07T05:13:15.574Z,100946.80
2018-11-07T05:15:43.970Z,100957.62
2018-11-07T05:18:12.346Z,100953.57
2018-11-07T05:20:40.734Z,100956.47
2018-11-07T05:23:09.108Z,100957.59
2018-11-07T05:25:37.798Z,100960.83
2018-11-07T05:28:06.286Z,100956.44
2018-11-07T05:30:34.797Z,100960.62
2018-11-07T05:33:03.175Z,100956.36
2018-11-07T05:35:31.571Z,100951.09
2018-11-07T05:37:59.942Z,100954.61
2018-11-07T05:40:28.513Z,100964.59
2018-11-07T05:42:56.903Z,100965.14
2018-11-07T05:45:25.342Z,100964.88
2018-11-07T05:47:53.712Z,100959.95
2018-11-07T05:50:22.107Z,100965.83
2018-11-07T05:52:50.483Z,100965.32
2018-11-07T05:55:18.882Z,100957.86
2018-11-07T05:57:47.250Z,100964.14
2018-11-07T06:00:15.658Z,100956.63
2018-11-07T06:02:44.026Z,100967.90
2018-11-07T06:05:12.828Z,100965.41
2018-11-07T06:07:41.486Z,100963.59
2018-11-07T06:10:11.939Z,100972.66
2018-11-07T06:12:40.701Z,100974.62
2018-11-07T06:15:10.342Z,100976.58
2018-11-07T06:17:38.710Z,100977.73
2018-11-07T06:20:08.021Z,100983.09
2018-11-07T06:22:36.578Z,100987.28
2018-11-07T06:25:05.335Z,100977.30
2018-11-07T06:27:33.722Z,100988.32
2018-11-07T06:30:02.364Z,100990.36
2018-11-07T06:32:30.758Z,100994.54
2018-11-07T06:34:59.149Z,100997.94
2018-11-07T06:37:27.520Z,100996.11
2018-11-07T06:39:55.917Z,101010.24
2018-11-07T06:42:24.343Z,101006.77
2018-11-07T06:44:53.148Z,101003.33
2018-11-07T06:47:21.524Z,101014.97
2018-11-07T06:49:49.918Z,101015.42
2018-11-07T06:52:18.309Z,101021.10
2018-11-07T06:54:47.001Z,101023.75
2018-11-07T06:57:15.689Z,101020.77
2018-11-07T06:59:44.234Z,101021.39
2018-11-07T07:02:12.606Z,101024.54
2018-11-07T07:04:41.006Z,101020.43
2018-11-07T07:07:09.380Z,101013.64
2018-11-07T07:09:37.778Z,101019.05
2018-11-07T07:12:06.207Z,101019.18
2018-11-07T07:14:34.674Z,101014.70
2018-11-07T07:17:03.346Z,101017.05
2018-11-07T07:19:31.774Z,101015.21
2018-11-07T07:22:00.139Z,101012.96
2018-11-07T07:24:28.506Z,101011.87
2018-11-07T07:26:56.898Z,101011.58
2018-11-07T07:29:25.269Z,101017.06
2018-11-07T07:31:53.669Z,101003.30
2018-11-07T07:34:23.710Z,101013.20
2018-11-07T07:36:52.105Z,101005.55
2018-11-07T07:39:20.479Z,101005.12
2018-11-07T07:41:48.890Z,101006.95
2018-11-07T07:44:17.271Z,101007.03
2018-11-07T07:46:45.676Z,101003.14
2018-11-07T07:49:14.081Z,101003.66
2018-11-07T07:51:42.495Z,101001.88
2018-11-07T07:54:10.874Z,101003.95
2018-11-07T07:56:39.270Z,101012.96
2018-11-07T07:59:07.648Z,101014.19
2018-11-07T08:01:36.047Z,101019.26
2018-11-07T08:04:04.444Z,101016.58
2018-11-07T08:06:35.450Z,101020.80
2018-11-07T08:09:04.756Z,101020.70
2018-11-07T08:11:33.151Z,101008.11
2018-11-07T08:14:01.571Z,101008.45
2018-11-07T08:16:29.954Z,100999.30
2018-11-07T08:18:58.322Z,101003.08
2018-11-07T08:21:26.778Z,101002.50
2018-11-07T08:23:55.123Z,101000.24
2018-11-07T08:26:23.519Z,100994.08
2018-11-07T08:28:51.882Z,100990.06
2018-11-07T08:31:20.283Z,100987.73
2018-11-07T08:33:48.655Z,100989.30
2018-11-07T08:36:17.062Z,100988.27
2018-11-07T08:38:45.431Z,100992.00
2018-11-07T08:41:13.846Z,100984.08
2018-11-07T08:43:42.218Z,100985.64
2018-11-07T08:46:10.610Z,100980.30
2018-11-07T08:48:38.981Z,100973.19
2018-11-07T08:51:07.378Z,100978.23
2018-11-07T08:53:35.747Z,100979.80
2018-11-07T08:56:04.140Z,100985.66
2018-11-07T08:58:32.515Z,100990.22
2018-11-07T09:01:00.918Z,100986.14
2018-11-07T09:03:29.296Z,100994.64
2018-11-07T09:05:57.691Z,100988.84
2018-11-07T09:08:26.074Z,100995.17
2018-11-07T09:10:54.478Z,100999.72
2018-11-07T09:13:22.871Z,100999.56
2018-11-07T09:15:51.250Z,101003.30
2018-11-07T09:18:19.658Z,101011.38
2018-11-07T09:20:48.030Z,101015.05
2018-11-07T09:23:16.450Z,101013.66
2018-11-07T09:25:44.827Z,101016.45
2018-11-07T09:28:13.218Z,101020.97
2018-11-07T09:30:41.586Z,101022.90
2018-11-07T09:33:09.994Z,101023.52
2018-11-07T09:35:38.380Z,101024.57
2018-11-07T09:38:06.814Z,101028.21
2018-11-07T09:40:35.190Z,101031.38
2018-11-07T09:43:03.612Z,101026.75
2018-11-07T09:45:31.987Z,101025.14
2018-11-07T09:48:00.398Z,101028.30
2018-11-07T09:50:28.781Z,101035.36
2018-11-07T09:52:57.174Z,101034.17
2018-11-07T09:55:25.554Z,101039.50
2018-11-07T09:57:53.951Z,101038.75
2018-11-07T10:00:22.705Z,101031.93
2018-11-07T10:02:51.102Z,101030.71
2018-11-07T10:05:20.615Z,101033.78
2018-11-07T10:07:49.016Z,101035.16
2018-11-07T10:10:18.774Z,101027.86
2018-11-07T10:12:47.452Z,101031.84
2018-11-07T10:15:15.947Z,101030.58
2018-11-07T10:17:44.350Z,101031.97
2018-11-07T10:20:14.551Z,101036.81
2018-11-07T10:22:43.666Z,101034.25
2018-11-07T10:25:12.535Z,101038.65
2018-11-07T10:27:41.400Z,101037.84
2018-11-07T10:30:11.513Z,101038.78
2018-11-07T10:32:40.092Z,101033.22
2018-11-07T10:35:09.127Z,101031.55
2018-11-07T10:37:37.531Z,101033.37
2018-11-07T10:40:08.578Z,101035.17
2018-11-07T10:42:37.016Z,101033.92
2018-11-07T10:45:05.746Z,101033.98
2018-11-07T10:47:34.138Z,101036.19
2018-11-07T10:50:02.510Z,101037.11
2018-11-07T10:52:30.923Z,101041.51
2018-11-07T10:54:59.310Z,101035.89
2018-11-07T10:57:27.710Z,101045.93
2018-11-07T10:59:56.087Z,101044.22
2018-11-07T11:02:29.910Z,101048.61
2018-11-07T11:04:58.296Z,101042.56
2018-11-07T11:07:26.895Z,101046.09
2018-11-07T11:09:55.295Z,101041.78
2018-11-07T11:12:23.970Z,101043.55
2018-11-07T11:14:52.370Z,101044.03
2018-11-07T11:17:20.780Z,101053.14
2018-11-07T11:19:49.166Z,101050.16
2018-11-07T11:22:17.546Z,101048.01
2018-11-07T11:24:45.942Z,101051.51
2018-11-07T11:27:14.378Z,101055.41
2018-11-07T11:29:42.754Z,101060.21
2018-11-07T11:32:11.131Z,101064.98
2018-11-07T11:34:39.583Z,101065.88
2018-11-07T11:37:07.935Z,101063.30
2018-11-07T11:39:36.326Z,101067.66
2018-11-07T11:42:05.035Z,101071.16
2018-11-07T11:44:33.431Z,101065.11
2018-11-07T11:47:01.810Z,101062.06
2018-11-07T11:49:30.227Z,101064.23
2018-11-07T11:51:58.595Z,101063.80
2018-11-07T11:54:26.994Z,101073.78
2018-11-07T11:56:55.468Z,101077.29
2018-11-07T11:59:24.221Z,101075.11
2018-11-07T12:01:52.357Z,101074.25
2018-11-07T12:04:20.756Z,101079.48
2018-11-07T12:06:49.128Z,101067.78
2018-11-07T12:09:17.534Z,101074.31
2018-11-07T12:11:45.991Z,101081.28
2018-11-07T12:14:14.374Z,101079.11
2018-11-07T12:16:42.757Z,101072.69
2018-11-07T12:19:11.155Z,101074.01
2018-11-07T12:21:39.526Z,101064.02
2018-11-07T12:24:07.927Z,101063.63
2018-11-07T12:26:36.319Z,101061.48
2018-11-07T12:29:04.830Z,101057.13
2018-11-07T12:31:33.231Z,101058.91
2018-11-07T12:34:01.606Z,101054.60
2018-11-07T12:36:30.069Z,101050.28
2018-11-07T12:38:58.409Z,101056.81
2018-11-07T12:41:26.830Z,101055.13
2018-11-07T12:43:55.206Z,101060.77
2018-11-07T12:46:23.599Z,101062.95
2018-11-07T12:48:51.974Z,101060.36
2018-11-07T12:51:20.374Z,101068.20
2018-11-07T12:53:48.746Z,101066.47
2018-11-07T12:56:17.142Z,101071.26
2018-11-07T12:58:45.519Z,101076.47
2018-11-07T13:01:13.953Z,101069.06
2018-11-07T13:03:42.398Z,101075.17
2018-11-07T13:06:10.805Z,101075.17
2018-11-07T13:08:39.210Z,101081.70
2018-11-07T13:11:07.668Z,101083.84
2018-11-07T13:13:36.011Z,101088.22
2018-11-07T13:16:04.619Z,101085.61
2018-11-07T13:18:33.002Z,101086.02
2018-11-07T13:21:01.407Z,101087.31
2018-11-07T13:23:29.782Z,101086.91
2018-11-07T13:25:58.178Z,101086.91
2018-11-07T13:28:26.590Z,101090.38
2018-11-07T13:30:54.975Z,101082.15
2018-11-07T13:33:23.347Z,101082.15
2018-11-07T13:35:51.751Z,101080.41
2018-11-07T13:38:20.357Z,101089.97
2018-11-07T13:40:48.587Z,101081.69
2018-11-07T13:43:16.979Z,101089.95
2018-11-07T13:45:45.432Z,101086.45
2018-11-07T13:48:13.780Z,101095.58
2018-11-07T13:50:42.178Z,101102.52
2018-11-07T13:53:10.599Z,101101.19
2018-11-07T13:55:38.979Z,101106.41
2018-11-07T13:58:07.378Z,101110.30
2018-11-07T14:00:35.782Z,101112.88
2018-11-07T14:03:04.266Z,101109.81
2018-11-07T14:05:32.675Z,101110.25
2018-11-07T14:08:01.062Z,101111.97
2018-11-07T14:10:29.462Z,101116.27
2018-11-07T14:12:57.838Z,101115.39
2018-11-07T14:15:26.241Z,101114.97
2018-11-07T14:17:54.627Z,101104.95
2018-11-07T14:20:23.003Z,101108.86
2018-11-07T14:22:51.406Z,101113.62
2018-11-07T14:25:19.789Z,101119.67
2018-11-07T14:27:48.304Z,101124.45
2018-11-07T14:30:18.094Z,101128.33
2018-11-07T14:32:50.938Z,101123.99
2018-11-07T14:35:19.337Z,101128.77
2018-11-07T14:37:47.735Z,101133.55
2018-11-07T14:40:16.201Z,101136.59
2018-11-07T14:42:44.626Z,101134.85
2018-11-07T14:45:13.187Z,101136.99
2018-11-07T14:47:42.353Z,101130.92
2018-11-07T14:50:11.478Z,101136.13
2018-11-07T14:52:39.916Z,101139.14
2018-11-07T14:55:08.857Z,101135.64
2018-11-07T14:57:37.253Z,101136.49
2018-11-07T15:00:09.131Z,101137.70
2018-11-07T15:02:37.813Z,101135.05
2018-11-07T15:05:07.494Z,101144.11
2018-11-07T15:07:35.895Z,101142.36
2018-11-07T15:10:04.346Z,101146.20
2018-11-07T15:12:32.819Z,101150.52
2018-11-07T15:15:01.194Z,101145.25
2018-11-07T15:17:29.632Z,101150.41
2018-11-07T15:19:58.006Z,101152.52
2018-11-07T15:22:26.406Z,101155.49
2018-11-07T15:24:54.801Z,101162.37
2018-11-07T15:27:23.203Z,101164.08
2018-11-07T15:29:51.586Z,101167.92
2018-11-07T15:32:20.172Z,101163.08
2018-11-07T15:34:48.534Z,101167.36
2018-11-07T15:37:16.937Z,101162.08
2018-11-07T15:39:45.310Z,101158.11
2018-11-07T15:42:13.729Z,101164.95
2018-11-07T15:44:42.103Z,101158.41
2018-11-07T15:47:10.507Z,101166.98
2018-11-07T15:49:41.811Z,101175.61
2018-11-07T15:52:10.548Z,101176.84
2018-11-07T15:54:38.930Z,101178.50
2018-11-07T15:57:07.338Z,101177.98
2018-11-07T15:59:35.706Z,101180.11
2018-11-07T16:02:04.119Z,101182.23
2018-11-07T16:04:32.491Z,101185.63
2018-11-07T16:07:00.886Z,101191.19
2018-11-07T16:09:29.262Z,101197.61
2018-11-07T16:11:57.695Z,101199.30
2018-11-07T16:14:26.147Z,101201.38
2018-11-07T16:16:54.517Z,101202.56
2018-11-07T16:19:22.898Z,101208.54
2018-11-07T16:21:51.294Z,101210.19
2018-11-07T16:24:19.682Z,101208.32
2018-11-07T16:26:48.059Z,101210.40
2018-11-07T16:29:16.463Z,101207.27
2018-11-07T16:31:44.877Z,101221.48
2018-11-07T16:34:13.271Z,101221.38
2018-11-07T16:36:41.715Z,101230.80
2018-11-07T16:39:11.069Z,101230.28
2018-11-07T16:41:39.570Z,101237.11
2018-11-07T16:44:07.890Z,101233.55
2018-11-07T16:46:36.486Z,101234.31
2018-11-07T16:49:04.895Z,101235.46
2018-11-07T16:51:33.298Z,101234.98
2018-11-07T16:54:02.057Z,101229.67
2018-11-07T16:56:30.438Z,101235.64
2018-11-07T16:58:58.860Z,101236.82
2018-11-07T17:01:27.251Z,101239.27
2018-11-07T17:03:55.654Z,101234.83
2018-11-07T17:06:24.034Z,101243.85
2018-11-07T17:08:52.438Z,101238.98
2018-11-07T17:11:20.815Z,101235.03
2018-11-07T17:13:49.222Z,101234.94
2018-11-07T17:16:17.600Z,101236.60
2018-11-07T17:18:46.003Z,101236.92
2018-11-07T17:21:14.391Z,101249.36
2018-11-07T17:23:42.796Z,101253.13
2018-11-07T17:26:11.186Z,101256.41
2018-11-07T17:28:39.588Z,101265.74
2018-11-07T17:31:07.977Z,101266.48
2018-11-07T17:33:36.379Z,101270.22
2018-11-07T17:36:05.148Z,101267.11
2018-11-07T17:38:33.614Z,101273.05
2018-11-07T17:41:01.970Z,101277.74
2018-11-07T17:43:30.582Z,101271.14
2018-11-07T17:45:58.963Z,101268.92
2018-11-07T17:48:27.421Z,101270.93
2018-11-07T17:50:55.764Z,101280.32
2018-11-07T17:53:24.150Z,101283.22
2018-11-07T17:55:52.532Z,101281.34
2018-11-07T17:58:20.926Z,101282.09
2018-11-07T18:00:49.326Z,101280.67
2018-11-07T18:03:17.730Z,101284.42
2018-11-07T18:05:46.098Z,101289.09
2018-11-07T18:08:14.506Z,101279.83
2018-11-07T18:10:43.539Z,101283.63
2018-11-07T18:13:11.934Z,101282.20
2018-11-07T18:15:40.311Z,101284.17
2018-11-07T18:18:08.728Z,101285.81
2018-11-07T18:20:37.130Z,101286.97
2018-11-07T18:23:05.990Z,101289.04
2018-11-07T18:25:34.394Z,101294.52
2018-11-07T18:28:02.778Z,101296.11
2018-11-07T18:30:31.182Z,101291.16
2018-11-07T18:33:04.877Z,101297.88
2018-11-07T18:35:33.308Z,101296.45
2018-11-07T18:38:01.714Z,101293.27
2018-11-07T18:40:30.126Z,101294.48
2018-11-07T18:42:58.537Z,101292.64
2018-11-07T18:45:26.971Z,101288.17
2018-11-07T18:47:55.355Z,101289.74
2018-11-07T18:50:23.811Z,101291.80
2018-11-07T18:52:52.181Z,101291.67
2018-11-07T18:55:20.588Z,101292.44
2018-11-07T18:57:48.980Z,101290.14
2018-11-07T19:00:18.844Z,101290.48
2018-11-07T19:02:47.815Z,101295.50
2018-11-07T19:05:16.466Z,101292.83
2018-11-07T19:07:45.034Z,101295.27
2018-11-07T19:10:15.730Z,101293.88
2018-11-07T19:12:44.601Z,101294.66
2018-11-07T19:15:14.038Z,101299.26
2018-11-07T19:17:43.410Z,101303.47
2018-11-07T19:20:12.904Z,101309.23
2018-11-07T19:22:41.394Z,101305.52
2018-11-07T19:25:12.235Z,101301.75
2018-11-07T19:27:40.613Z,101315.45
2018-11-07T19:30:12.782Z,101322.55
2018-11-07T19:32:41.420Z,101315.99
2018-11-07T19:35:11.354Z,101314.53
2018-11-07T19:37:39.867Z,101316.61
2018-11-07T19:40:10.242Z,101317.38
2018-11-07T19:42:40.621Z,101317.70
2018-11-07T19:45:11.782Z,101317.18
2018-11-07T19:47:40.338Z,101320.53
2018-11-07T19:50:10.282Z,101324.77
2018-11-07T19:52:38.686Z,101332.41
2018-11-07T19:55:09.494Z,101326.23
2018-11-07T19:57:37.904Z,101329.66
2018-11-07T20:00:09.746Z,101332.95
2018-11-07T20:02:38.110Z,101335.01
2018-11-07T20:05:07.038Z,101334.06
2018-11-07T20:07:35.886Z,101336.09
2018-11-07T20:10:04.323Z,101342.03
2018-11-07T20:12:32.759Z,101344.95
2018-11-07T20:15:01.147Z,101345.27
2018-11-07T20:17:29.514Z,101351.55
2018-11-07T20:19:57.910Z,101359.64
2018-11-07T20:22:26.274Z,101361.22
2018-11-07T20:24:54.670Z,101367.45
2018-11-07T20:27:23.083Z,101365.98
2018-11-07T20:29:51.570Z,101378.78
2018-11-07T20:32:19.942Z,101375.67
2018-11-07T20:34:48.370Z,101374.73
2018-11-07T20:37:16.747Z,101378.41
2018-11-07T20:39:45.290Z,101377.44
2018-11-07T20:42:13.692Z,101378.61
2018-11-07T20:44:42.298Z,101384.05
2018-11-07T20:47:10.903Z,101379.61
2018-11-07T20:49:39.283Z,101385.87
2018-11-07T20:52:07.674Z,101393.00
2018-11-07T20:54:36.288Z,101389.29
2018-11-07T20:57:04.651Z,101391.22
2018-11-07T20:59:33.022Z,101398.01
2018-11-07T21:02:01.590Z,101401.77
2018-11-07T21:04:30.085Z,101397.78
2018-11-07T21:06:58.480Z,101405.40
2018-11-07T21:09:26.854Z,101409.61
2018-11-07T21:11:55.415Z,101410.36
2018-11-07T21:14:23.785Z,101412.82
2018-11-07T21:16:52.213Z,101410.05
2018-11-07T21:19:20.583Z,101408.64
2018-11-07T21:21:48.981Z,101407.20
2018-11-07T21:24:17.355Z,101402.41
2018-11-07T21:26:45.786Z,101409.99
2018-11-07T21:29:14.166Z,101408.17
2018-11-07T21:31:42.558Z,101414.48
2018-11-07T21:34:10.930Z,101421.27
2018-11-07T21:36:39.319Z,101424.19
2018-11-07T21:39:09.822Z,101414.17
2018-11-07T21:41:38.427Z,101414.92
2018-11-07T21:44:06.805Z,101414.84
2018-11-07T21:46:35.206Z,101419.53
2018-11-07T21:49:03.578Z,101416.42
2018-11-07T21:51:31.983Z,101420.16
2018-11-07T21:54:00.371Z,101419.20
2018-11-07T21:56:28.769Z,101413.98
2018-11-07T21:58:57.210Z,101417.30
2018-11-07T22:01:25.605Z,101417.25
2018-11-07T22:03:53.986Z,101421.05
2018-11-07T22:06:22.378Z,101420.97
2018-11-07T22:08:50.754Z,101414.48
2018-11-07T22:11:19.153Z,101412.65
2018-11-07T22:13:47.518Z,101427.98
2018-11-07T22:16:15.909Z,101424.86
2018-11-07T22:18:44.278Z,101415.69
2018-11-07T22:21:12.676Z,101416.10
2018-11-07T22:23:41.085Z,101413.06
2018-11-07T22:26:09.502Z,101421.53
2018-11-07T22:28:37.879Z,101423.98
2018-11-07T22:31:06.843Z,101414.77
2018-11-07T22:33:35.223Z,101416.77
2018-11-07T22:36:03.602Z,101417.09
2018-11-07T22:38:31.998Z,101419.55
2018-11-07T22:41:00.378Z,101428.02
2018-11-07T22:43:28.799Z,101423.98
2018-11-07T22:45:57.170Z,101428.21
2018-11-07T22:48:25.574Z,101429.75
2018-11-07T22:50:53.954Z,101426.30
2018-11-07T22:53:22.350Z,101425.26
2018-11-07T22:55:50.730Z,101423.92
2018-11-07T22:58:19.134Z,101432.30
2018-11-07T23:00:52.954Z,101433.54
2018-11-07T23:03:21.347Z,101441.18
2018-11-07T23:05:49.726Z,101450.11
2018-11-07T23:08:18.118Z,101449.64
2018-11-07T23:10:46.490Z,101453.04
2018-11-07T23:13:14.883Z,101455.61
2018-11-07T23:15:49.221Z,101458.98
2018-11-07T23:18:19.058Z,101462.38
2018-11-07T23:20:47.442Z,101467.93
2018-11-07T23:23:16.434Z,101469.59
2018-11-07T23:25:45.198Z,101470.51
2018-11-07T23:28:13.595Z,101472.53
2018-11-07T23:30:41.966Z,101469.88
2018-11-07T23:33:10.402Z,101468.04
2018-11-07T23:35:38.923Z,101475.30
2018-11-07T23:38:07.323Z,101472.55
2018-11-07T23:40:35.698Z,101475.13
2018-11-07T23:43:04.119Z,101471.77
2018-11-07T23:45:32.491Z,101469.11
2018-11-07T23:48:00.892Z,101469.52
2018-11-07T23:50:29.266Z,101472.88
2018-11-07T23:52:58.285Z,101473.62
2018-11-07T23:55:26.666Z,101476.92
2018-11-07T23:57:55.099Z,101479.03
